sensor_id;sensor_type;location;lat;lon;timestamp;temperature;humidity
41447;DHT22;27185;52.040;4.490;2022-10-18T00:02:27;15.40;99.90
41447;DHT22;27185;52.040;4.490;2022-10-18T00:05:14;15.40;99.90
41447;DHT22;27185;52.040;4.490;2022-10-18T00:07:59;15.30;99.90
41447;DHT22;27185;52.040;4.490;2022-10-18T00:10:45;15.30;99.90
41447;DHT22;27185;52.040;4.490;2022-10-18T00:13:31;15.20;99.90
41447;DHT22;27185;52.040;4.490;2022-10-18T00:16:17;15.20;99.90
41447;DHT22;27185;52.040;4.490;2022-10-18T00:19:03;15.10;99.90
41447;DHT22;27185;52.040;4.490;2022-10-18T00:21:51;15.10;99.90
41447;DHT22;27185;52.040;4.490;2022-10-18T00:24:37;15.00;99.90
41447;DHT22;27185;52.040;4.490;2022-10-18T00:27:22;15.00;99.90
41447;DHT22;27185;52.040;4.490;2022-10-18T00:30:08;14.90;99.90
41447;DHT22;27185;52.040;4.490;2022-10-18T00:32:54;14.90;99.90
41447;DHT22;27185;52.040;4.490;2022-10-18T00:35:39;14.80;99.90
41447;DHT22;27185;52.040;4.490;2022-10-18T00:38:25;14.70;99.90
41447;DHT22;27185;52.040;4.490;2022-10-18T00:41:14;14.70;99.90
41447;DHT22;27185;52.040;4.490;2022-10-18T00:44:03;14.70;99.90
41447;DHT22;27185;52.040;4.490;2022-10-18T00:46:49;14.70;99.90
41447;DHT22;27185;52.040;4.490;2022-10-18T00:49:42;14.70;99.90
41447;DHT22;27185;52.040;4.490;2022-10-18T00:52:35;14.70;99.90
41447;DHT22;27185;52.040;4.490;2022-10-18T00:55:22;14.70;99.90
41447;DHT22;27185;52.040;4.490;2022-10-18T00:58:09;14.70;99.90
41447;DHT22;27185;52.040;4.490;2022-10-18T01:00:55;14.60;99.90
41447;DHT22;27185;52.040;4.490;2022-10-18T01:03:41;14.60;99.90
41447;DHT22;27185;52.040;4.490;2022-10-18T01:06:27;14.60;99.90
41447;DHT22;27185;52.040;4.490;2022-10-18T01:09:39;14.60;99.90
41447;DHT22;27185;52.040;4.490;2022-10-18T01:12:52;14.50;99.90
41447;DHT22;27185;52.040;4.490;2022-10-18T01:16:42;14.50;99.90
41447;DHT22;27185;52.040;4.490;2022-10-18T01:19:29;14.40;99.90
41447;DHT22;27185;52.040;4.490;2022-10-18T01:22:38;14.40;99.90
41447;DHT22;27185;52.040;4.490;2022-10-18T01:29:14;14.30;99.90
41447;DHT22;27185;52.040;4.490;2022-10-18T01:32:10;14.20;99.90
41447;DHT22;27185;52.040;4.490;2022-10-18T01:35:02;14.10;99.90
41447;DHT22;27185;52.040;4.490;2022-10-18T01:37:49;14.10;99.90
41447;DHT22;27185;52.040;4.490;2022-10-18T01:40:37;14.10;99.90
41447;DHT22;27185;52.040;4.490;2022-10-18T01:43:24;14.00;99.90
41447;DHT22;27185;52.040;4.490;2022-10-18T01:46:14;13.90;99.90
41447;DHT22;27185;52.040;4.490;2022-10-18T01:49:03;13.90;99.90
41447;DHT22;27185;52.040;4.490;2022-10-18T01:51:49;13.80;99.90
41447;DHT22;27185;52.040;4.490;2022-10-18T01:54:40;13.80;99.90
41447;DHT22;27185;52.040;4.490;2022-10-18T01:57:36;13.80;99.90
41447;DHT22;27185;52.040;4.490;2022-10-18T02:00:52;13.70;99.90
41447;DHT22;27185;52.040;4.490;2022-10-18T02:03:36;13.70;99.90
41447;DHT22;27185;52.040;4.490;2022-10-18T02:06:29;13.70;99.90
41447;DHT22;27185;52.040;4.490;2022-10-18T02:09:20;13.60;99.90
41447;DHT22;27185;52.040;4.490;2022-10-18T02:12:11;13.60;99.90
41447;DHT22;27185;52.040;4.490;2022-10-18T02:14:59;13.50;99.90
41447;DHT22;27185;52.040;4.490;2022-10-18T02:17:46;13.50;99.90
41447;DHT22;27185;52.040;4.490;2022-10-18T02:20:32;13.50;99.90
41447;DHT22;27185;52.040;4.490;2022-10-18T02:23:22;13.50;99.90
41447;DHT22;27185;52.040;4.490;2022-10-18T02:26:08;13.40;99.90
41447;DHT22;27185;52.040;4.490;2022-10-18T02:28:54;13.40;99.90
41447;DHT22;27185;52.040;4.490;2022-10-18T02:31:45;13.40;99.90
41447;DHT22;27185;52.040;4.490;2022-10-18T02:34:43;13.40;99.90
41447;DHT22;27185;52.040;4.490;2022-10-18T02:37:37;13.40;99.90
41447;DHT22;27185;52.040;4.490;2022-10-18T02:40:24;13.40;99.90
41447;DHT22;27185;52.040;4.490;2022-10-18T02:43:10;13.30;99.90
41447;DHT22;27185;52.040;4.490;2022-10-18T02:45:55;13.30;99.90
41447;DHT22;27185;52.040;4.490;2022-10-18T02:48:41;13.30;99.90
41447;DHT22;27185;52.040;4.490;2022-10-18T02:51:26;13.30;99.90
41447;DHT22;27185;52.040;4.490;2022-10-18T02:54:12;13.20;99.90
41447;DHT22;27185;52.040;4.490;2022-10-18T02:56:57;13.20;99.90
41447;DHT22;27185;52.040;4.490;2022-10-18T02:59:43;13.10;99.90
41447;DHT22;27185;52.040;4.490;2022-10-18T03:02:28;13.10;99.90
41447;DHT22;27185;52.040;4.490;2022-10-18T03:05:14;13.00;99.90
41447;DHT22;27185;52.040;4.490;2022-10-18T03:08:00;13.00;99.90
41447;DHT22;27185;52.040;4.490;2022-10-18T03:10:46;12.90;99.90
41447;DHT22;27185;52.040;4.490;2022-10-18T03:13:31;12.90;99.90
41447;DHT22;27185;52.040;4.490;2022-10-18T03:16:18;12.90;99.90
41447;DHT22;27185;52.040;4.490;2022-10-18T03:19:03;12.90;99.90
41447;DHT22;27185;52.040;4.490;2022-10-18T03:21:49;12.80;99.90
41447;DHT22;27185;52.040;4.490;2022-10-18T03:24:34;12.80;99.90
41447;DHT22;27185;52.040;4.490;2022-10-18T03:27:20;12.80;99.90
41447;DHT22;27185;52.040;4.490;2022-10-18T03:30:06;12.80;99.90
41447;DHT22;27185;52.040;4.490;2022-10-18T03:32:52;12.80;99.90
41447;DHT22;27185;52.040;4.490;2022-10-18T03:35:38;12.80;99.90
41447;DHT22;27185;52.040;4.490;2022-10-18T03:38:24;12.80;99.90
41447;DHT22;27185;52.040;4.490;2022-10-18T03:41:10;12.80;99.90
41447;DHT22;27185;52.040;4.490;2022-10-18T03:43:55;12.80;99.90
41447;DHT22;27185;52.040;4.490;2022-10-18T03:46:41;12.80;99.90
41447;DHT22;27185;52.040;4.490;2022-10-18T03:49:26;12.80;99.90
41447;DHT22;27185;52.040;4.490;2022-10-18T03:52:12;12.80;99.90
41447;DHT22;27185;52.040;4.490;2022-10-18T03:54:57;12.80;99.90
41447;DHT22;27185;52.040;4.490;2022-10-18T03:57:43;12.80;99.90
41447;DHT22;27185;52.040;4.490;2022-10-18T04:00:28;12.70;99.90
41447;DHT22;27185;52.040;4.490;2022-10-18T04:03:14;12.70;99.90
41447;DHT22;27185;52.040;4.490;2022-10-18T04:05:59;12.70;99.90
41447;DHT22;27185;52.040;4.490;2022-10-18T04:08:47;12.70;99.90
41447;DHT22;27185;52.040;4.490;2022-10-18T04:11:33;12.70;99.90
41447;DHT22;27185;52.040;4.490;2022-10-18T04:14:18;12.70;99.90
41447;DHT22;27185;52.040;4.490;2022-10-18T04:17:05;12.70;99.90
41447;DHT22;27185;52.040;4.490;2022-10-18T04:19:51;12.60;99.90
41447;DHT22;27185;52.040;4.490;2022-10-18T04:22:36;12.60;99.90
41447;DHT22;27185;52.040;4.490;2022-10-18T04:25:23;12.60;99.90
41447;DHT22;27185;52.040;4.490;2022-10-18T04:28:09;12.60;99.90
41447;DHT22;27185;52.040;4.490;2022-10-18T04:30:54;12.50;99.90
41447;DHT22;27185;52.040;4.490;2022-10-18T04:33:40;12.50;99.90
41447;DHT22;27185;52.040;4.490;2022-10-18T04:36:25;12.50;99.90
41447;DHT22;27185;52.040;4.490;2022-10-18T04:39:11;12.40;99.90
41447;DHT22;27185;52.040;4.490;2022-10-18T04:41:56;12.40;99.90
41447;DHT22;27185;52.040;4.490;2022-10-18T04:44:42;12.40;99.90
41447;DHT22;27185;52.040;4.490;2022-10-18T04:47:28;12.30;99.90
41447;DHT22;27185;52.040;4.490;2022-10-18T04:50:13;12.30;99.90
41447;DHT22;27185;52.040;4.490;2022-10-18T04:52:59;12.30;99.90
41447;DHT22;27185;52.040;4.490;2022-10-18T04:55:48;12.20;99.90
41447;DHT22;27185;52.040;4.490;2022-10-18T04:58:34;12.20;99.90
41447;DHT22;27185;52.040;4.490;2022-10-18T05:01:19;12.10;99.90
41447;DHT22;27185;52.040;4.490;2022-10-18T05:04:05;12.10;99.90
41447;DHT22;27185;52.040;4.490;2022-10-18T05:06:50;12.10;99.90
41447;DHT22;27185;52.040;4.490;2022-10-18T05:09:36;12.10;99.90
41447;DHT22;27185;52.040;4.490;2022-10-18T05:12:21;12.10;99.90
41447;DHT22;27185;52.040;4.490;2022-10-18T05:15:07;12.00;99.90
41447;DHT22;27185;52.040;4.490;2022-10-18T05:17:53;12.00;99.90
41447;DHT22;27185;52.040;4.490;2022-10-18T05:20:38;12.00;99.90
41447;DHT22;27185;52.040;4.490;2022-10-18T05:23:24;12.00;99.90
41447;DHT22;27185;52.040;4.490;2022-10-18T05:26:10;11.90;99.90
41447;DHT22;27185;52.040;4.490;2022-10-18T05:28:55;11.90;99.90
41447;DHT22;27185;52.040;4.490;2022-10-18T05:31:41;11.90;99.90
41447;DHT22;27185;52.040;4.490;2022-10-18T05:34:26;11.80;99.90
41447;DHT22;27185;52.040;4.490;2022-10-18T05:37:16;11.80;99.90
41447;DHT22;27185;52.040;4.490;2022-10-18T05:40:01;11.80;99.90
41447;DHT22;27185;52.040;4.490;2022-10-18T05:42:50;11.70;99.90
41447;DHT22;27185;52.040;4.490;2022-10-18T05:45:36;11.70;99.90
41447;DHT22;27185;52.040;4.490;2022-10-18T05:48:22;11.70;99.90
41447;DHT22;27185;52.040;4.490;2022-10-18T05:51:07;11.60;99.90
41447;DHT22;27185;52.040;4.490;2022-10-18T05:53:53;11.60;99.90
41447;DHT22;27185;52.040;4.490;2022-10-18T05:56:39;11.50;99.90
41447;DHT22;27185;52.040;4.490;2022-10-18T05:59:25;11.50;99.90
41447;DHT22;27185;52.040;4.490;2022-10-18T06:02:11;11.50;99.90
41447;DHT22;27185;52.040;4.490;2022-10-18T06:04:56;11.40;99.90
41447;DHT22;27185;52.040;4.490;2022-10-18T06:07:42;11.40;99.90
41447;DHT22;27185;52.040;4.490;2022-10-18T06:10:28;11.40;99.90
41447;DHT22;27185;52.040;4.490;2022-10-18T06:13:13;11.40;99.90
41447;DHT22;27185;52.040;4.490;2022-10-18T06:15:59;11.30;99.90
41447;DHT22;27185;52.040;4.490;2022-10-18T06:18:49;11.30;99.90
41447;DHT22;27185;52.040;4.490;2022-10-18T06:21:34;11.30;99.90
41447;DHT22;27185;52.040;4.490;2022-10-18T06:24:20;11.20;99.90
41447;DHT22;27185;52.040;4.490;2022-10-18T06:27:06;11.20;99.90
41447;DHT22;27185;52.040;4.490;2022-10-18T06:29:54;11.20;99.90
41447;DHT22;27185;52.040;4.490;2022-10-18T06:32:39;11.20;99.90
41447;DHT22;27185;52.040;4.490;2022-10-18T06:35:25;11.20;99.90
41447;DHT22;27185;52.040;4.490;2022-10-18T06:38:11;11.20;99.90
41447;DHT22;27185;52.040;4.490;2022-10-18T06:40:57;11.10;99.90
41447;DHT22;27185;52.040;4.490;2022-10-18T06:43:49;11.10;99.90
41447;DHT22;27185;52.040;4.490;2022-10-18T06:46:35;11.10;99.90
41447;DHT22;27185;52.040;4.490;2022-10-18T06:49:20;11.10;99.90
41447;DHT22;27185;52.040;4.490;2022-10-18T06:52:06;11.10;99.90
41447;DHT22;27185;52.040;4.490;2022-10-18T06:54:52;11.10;99.90
41447;DHT22;27185;52.040;4.490;2022-10-18T06:57:38;11.10;99.90
41447;DHT22;27185;52.040;4.490;2022-10-18T07:00:23;11.10;99.90
41447;DHT22;27185;52.040;4.490;2022-10-18T07:03:09;11.10;99.90
41447;DHT22;27185;52.040;4.490;2022-10-18T07:06:03;11.10;99.90
41447;DHT22;27185;52.040;4.490;2022-10-18T07:08:49;11.10;99.90
41447;DHT22;27185;52.040;4.490;2022-10-18T07:11:37;11.10;99.90
41447;DHT22;27185;52.040;4.490;2022-10-18T07:14:22;11.10;99.90
41447;DHT22;27185;52.040;4.490;2022-10-18T07:17:08;11.10;99.90
41447;DHT22;27185;52.040;4.490;2022-10-18T07:19:53;11.10;99.90
41447;DHT22;27185;52.040;4.490;2022-10-18T07:22:39;11.20;99.90
41447;DHT22;27185;52.040;4.490;2022-10-18T07:25:25;11.20;99.90
41447;DHT22;27185;52.040;4.490;2022-10-18T07:28:10;11.30;99.90
41447;DHT22;27185;52.040;4.490;2022-10-18T07:30:56;11.40;99.90
41447;DHT22;27185;52.040;4.490;2022-10-18T07:33:41;11.50;99.90
41447;DHT22;27185;52.040;4.490;2022-10-18T07:36:27;11.50;99.90
41447;DHT22;27185;52.040;4.490;2022-10-18T07:39:12;11.60;99.90
41447;DHT22;27185;52.040;4.490;2022-10-18T07:41:58;11.70;99.90
41447;DHT22;27185;52.040;4.490;2022-10-18T07:44:43;11.80;99.90
41447;DHT22;27185;52.040;4.490;2022-10-18T07:47:29;11.90;99.90
41447;DHT22;27185;52.040;4.490;2022-10-18T07:50:15;12.00;99.90
41447;DHT22;27185;52.040;4.490;2022-10-18T07:53:00;12.10;99.90
41447;DHT22;27185;52.040;4.490;2022-10-18T07:55:46;12.20;99.90
41447;DHT22;27185;52.040;4.490;2022-10-18T07:58:32;12.30;99.90
41447;DHT22;27185;52.040;4.490;2022-10-18T08:01:19;12.40;99.90
41447;DHT22;27185;52.040;4.490;2022-10-18T08:04:05;12.50;99.90
41447;DHT22;27185;52.040;4.490;2022-10-18T08:06:51;12.60;99.90
41447;DHT22;27185;52.040;4.490;2022-10-18T08:09:38;12.80;99.90
41447;DHT22;27185;52.040;4.490;2022-10-18T08:12:23;12.90;99.90
41447;DHT22;27185;52.040;4.490;2022-10-18T08:15:09;13.00;99.90
41447;DHT22;27185;52.040;4.490;2022-10-18T08:17:55;13.20;99.90
41447;DHT22;27185;52.040;4.490;2022-10-18T08:20:44;13.30;99.90
41447;DHT22;27185;52.040;4.490;2022-10-18T08:23:30;13.50;99.90
41447;DHT22;27185;52.040;4.490;2022-10-18T08:26:19;13.70;99.90
41447;DHT22;27185;52.040;4.490;2022-10-18T08:29:05;13.80;99.90
41447;DHT22;27185;52.040;4.490;2022-10-18T08:31:51;14.00;99.90
41447;DHT22;27185;52.040;4.490;2022-10-18T08:34:36;14.20;99.90
41447;DHT22;27185;52.040;4.490;2022-10-18T08:37:22;14.30;99.90
41447;DHT22;27185;52.040;4.490;2022-10-18T08:40:11;14.50;99.90
41447;DHT22;27185;52.040;4.490;2022-10-18T08:43:21;14.60;99.90
41447;DHT22;27185;52.040;4.490;2022-10-18T08:46:12;14.70;99.90
41447;DHT22;27185;52.040;4.490;2022-10-18T08:48:58;14.80;99.90
41447;DHT22;27185;52.040;4.490;2022-10-18T08:51:47;14.90;99.90
41447;DHT22;27185;52.040;4.490;2022-10-18T08:54:59;15.00;99.90
41447;DHT22;27185;52.040;4.490;2022-10-18T08:57:47;15.10;99.90
41447;DHT22;27185;52.040;4.490;2022-10-18T09:00:36;15.20;99.90
41447;DHT22;27185;52.040;4.490;2022-10-18T09:12:59;15.40;99.90
41447;DHT22;27185;52.040;4.490;2022-10-18T09:16:06;15.50;99.90
41447;DHT22;27185;52.040;4.490;2022-10-18T09:19:15;15.50;99.90
41447;DHT22;27185;52.040;4.490;2022-10-18T09:22:12;15.50;99.90
41447;DHT22;27185;52.040;4.490;2022-10-18T09:25:17;15.60;99.90
41447;DHT22;27185;52.040;4.490;2022-10-18T09:28:18;15.60;99.90
41447;DHT22;27185;52.040;4.490;2022-10-18T09:31:20;15.60;99.90
41447;DHT22;27185;52.040;4.490;2022-10-18T09:34:37;15.70;99.90
41447;DHT22;27185;52.040;4.490;2022-10-18T09:37:24;15.70;99.90
41447;DHT22;27185;52.040;4.490;2022-10-18T09:40:21;15.70;99.90
41447;DHT22;27185;52.040;4.490;2022-10-18T09:43:16;15.70;99.90
41447;DHT22;27185;52.040;4.490;2022-10-18T09:46:04;15.80;99.90
41447;DHT22;27185;52.040;4.490;2022-10-18T09:49:03;15.80;99.90
41447;DHT22;27185;52.040;4.490;2022-10-18T09:51:51;15.90;99.90
41447;DHT22;27185;52.040;4.490;2022-10-18T09:54:50;16.00;99.90
41447;DHT22;27185;52.040;4.490;2022-10-18T09:57:43;16.20;99.90
41447;DHT22;27185;52.040;4.490;2022-10-18T10:00:37;16.40;99.90
41447;DHT22;27185;52.040;4.490;2022-10-18T10:03:25;16.50;99.90
41447;DHT22;27185;52.040;4.490;2022-10-18T10:11:50;17.00;99.90
41447;DHT22;27185;52.040;4.490;2022-10-18T10:14:42;17.20;99.90
41447;DHT22;27185;52.040;4.490;2022-10-18T10:17:30;17.30;99.90
41447;DHT22;27185;52.040;4.490;2022-10-18T10:20:21;17.40;99.90
41447;DHT22;27185;52.040;4.490;2022-10-18T10:32:45;18.00;99.90
41447;DHT22;27185;52.040;4.490;2022-10-18T10:35:34;18.10;99.90
41447;DHT22;27185;52.040;4.490;2022-10-18T10:38:25;18.10;99.90
41447;DHT22;27185;52.040;4.490;2022-10-18T10:41:22;18.20;99.90
41447;DHT22;27185;52.040;4.490;2022-10-18T10:44:19;18.30;99.90
41447;DHT22;27185;52.040;4.490;2022-10-18T10:47:05;18.40;99.90
41447;DHT22;27185;52.040;4.490;2022-10-18T10:49:50;18.50;99.90
41447;DHT22;27185;52.040;4.490;2022-10-18T10:52:38;18.60;99.90
41447;DHT22;27185;52.040;4.490;2022-10-18T10:55:30;18.60;99.90
41447;DHT22;27185;52.040;4.490;2022-10-18T10:58:18;18.70;99.90
41447;DHT22;27185;52.040;4.490;2022-10-18T11:01:22;18.70;99.90
41447;DHT22;27185;52.040;4.490;2022-10-18T11:04:26;18.80;96.70
41447;DHT22;27185;52.040;4.490;2022-10-18T11:07:40;18.90;97.70
41447;DHT22;27185;52.040;4.490;2022-10-18T11:10:29;18.90;96.00
41447;DHT22;27185;52.040;4.490;2022-10-18T11:22:59;19.10;95.10
41447;DHT22;27185;52.040;4.490;2022-10-18T11:32:21;19.30;96.90
41447;DHT22;27185;52.040;4.490;2022-10-18T11:39:02;19.40;96.20
41447;DHT22;27185;52.040;4.490;2022-10-18T11:41:31;19.50;95.40
41447;DHT22;27185;52.040;4.490;2022-10-18T11:44:45;19.60;97.10
41447;DHT22;27185;52.040;4.490;2022-10-18T11:54:18;19.90;96.00
41447;DHT22;27185;52.040;4.490;2022-10-18T12:00:46;20.90;94.80
41447;DHT22;27185;52.040;4.490;2022-10-18T12:06:49;21.90;94.00
41447;DHT22;27185;52.040;4.490;2022-10-18T12:09:45;22.20;95.20
41447;DHT22;27185;52.040;4.490;2022-10-18T12:12:36;22.50;93.00
41447;DHT22;27185;52.040;4.490;2022-10-18T12:15:27;22.70;94.00
41447;DHT22;27185;52.040;4.490;2022-10-18T12:18:16;22.90;93.10
41447;DHT22;27185;52.040;4.490;2022-10-18T12:21:04;23.00;93.10
41447;DHT22;27185;52.040;4.490;2022-10-18T12:23:54;23.10;92.80
41447;DHT22;27185;52.040;4.490;2022-10-18T12:26:40;23.20;92.80
41447;DHT22;27185;52.040;4.490;2022-10-18T12:29:39;23.30;91.40
41447;DHT22;27185;52.040;4.490;2022-10-18T12:32:33;23.40;90.40
41447;DHT22;27185;52.040;4.490;2022-10-18T12:35:21;23.40;90.70
41447;DHT22;27185;52.040;4.490;2022-10-18T12:38:17;23.50;92.10
41447;DHT22;27185;52.040;4.490;2022-10-18T12:41:04;23.70;91.00
41447;DHT22;27185;52.040;4.490;2022-10-18T12:43:53;23.70;92.00
41447;DHT22;27185;52.040;4.490;2022-10-18T12:46:53;23.80;91.70
41447;DHT22;27185;52.040;4.490;2022-10-18T12:49:39;23.80;89.20
41447;DHT22;27185;52.040;4.490;2022-10-18T12:52:29;23.90;91.60
41447;DHT22;27185;52.040;4.490;2022-10-18T12:58:22;23.90;90.50
41447;DHT22;27185;52.040;4.490;2022-10-18T13:01:08;23.80;87.20
41447;DHT22;27185;52.040;4.490;2022-10-18T13:03:55;23.80;91.10
41447;DHT22;27185;52.040;4.490;2022-10-18T13:16:33;23.80;88.30
41447;DHT22;27185;52.040;4.490;2022-10-18T13:19:36;23.80;91.00
41447;DHT22;27185;52.040;4.490;2022-10-18T13:25:28;23.80;90.00
41447;DHT22;27185;52.040;4.490;2022-10-18T13:31:34;23.70;86.80
41447;DHT22;27185;52.040;4.490;2022-10-18T13:34:24;23.70;88.50
41447;DHT22;27185;52.040;4.490;2022-10-18T13:40:27;23.60;90.20
41447;DHT22;27185;52.040;4.490;2022-10-18T14:01:29;23.30;88.80
41447;DHT22;27185;52.040;4.490;2022-10-18T14:04:56;23.20;89.10
41447;DHT22;27185;52.040;4.490;2022-10-18T14:07:45;23.20;86.70
41447;DHT22;27185;52.040;4.490;2022-10-18T14:13:54;23.10;88.90
41447;DHT22;27185;52.040;4.490;2022-10-18T14:16:47;23.10;90.60
41447;DHT22;27185;52.040;4.490;2022-10-18T14:22:35;23.40;88.40
41447;DHT22;27185;52.040;4.490;2022-10-18T14:25:29;23.40;89.50
41447;DHT22;27185;52.040;4.490;2022-10-18T14:28:17;23.30;88.30
41447;DHT22;27185;52.040;4.490;2022-10-18T14:31:05;23.30;90.00
41447;DHT22;27185;52.040;4.490;2022-10-18T14:33:53;23.10;89.80
41447;DHT22;27185;52.040;4.490;2022-10-18T14:36:40;23.00;89.80
41447;DHT22;27185;52.040;4.490;2022-10-18T14:39:26;22.90;90.00
41447;DHT22;27185;52.040;4.490;2022-10-18T14:42:22;22.80;90.00
41447;DHT22;27185;52.040;4.490;2022-10-18T14:45:18;22.70;89.30
41447;DHT22;27185;52.040;4.490;2022-10-18T14:48:15;22.60;88.40
41447;DHT22;27185;52.040;4.490;2022-10-18T14:51:02;22.50;90.30
41447;DHT22;27185;52.040;4.490;2022-10-18T14:53:52;22.40;90.50
41447;DHT22;27185;52.040;4.490;2022-10-18T14:56:39;22.40;90.70
41447;DHT22;27185;52.040;4.490;2022-10-18T14:59:27;22.30;90.60
41447;DHT22;27185;52.040;4.490;2022-10-18T15:02:15;22.20;90.60
41447;DHT22;27185;52.040;4.490;2022-10-18T15:05:08;22.20;90.80
41447;DHT22;27185;52.040;4.490;2022-10-18T15:07:55;22.20;90.00
41447;DHT22;27185;52.040;4.490;2022-10-18T15:10:44;22.20;90.90
41447;DHT22;27185;52.040;4.490;2022-10-18T15:13:30;22.10;90.60
41447;DHT22;27185;52.040;4.490;2022-10-18T15:16:18;22.10;90.50
41447;DHT22;27185;52.040;4.490;2022-10-18T15:22:22;22.00;89.00
41447;DHT22;27185;52.040;4.490;2022-10-18T15:25:10;22.00;89.90
41447;DHT22;27185;52.040;4.490;2022-10-18T15:27:58;22.00;90.60
41447;DHT22;27185;52.040;4.490;2022-10-18T15:30:44;22.00;90.50
41447;DHT22;27185;52.040;4.490;2022-10-18T15:33:31;21.90;90.70
41447;DHT22;27185;52.040;4.490;2022-10-18T15:36:28;21.90;90.80
41447;DHT22;27185;52.040;4.490;2022-10-18T15:39:26;21.90;90.40
41447;DHT22;27185;52.040;4.490;2022-10-18T15:42:35;21.80;90.50
41447;DHT22;27185;52.040;4.490;2022-10-18T15:50:58;20.80;91.10
41447;DHT22;27185;52.040;4.490;2022-10-18T15:53:50;20.50;91.40
41447;DHT22;27185;52.040;4.490;2022-10-18T15:56:44;20.10;91.90
41447;DHT22;27185;52.040;4.490;2022-10-18T15:59:29;19.80;92.10
41447;DHT22;27185;52.040;4.490;2022-10-18T16:02:16;19.60;92.80
41447;DHT22;27185;52.040;4.490;2022-10-18T16:05:03;19.40;92.90
41447;DHT22;27185;52.040;4.490;2022-10-18T16:07:52;19.20;93.00
41447;DHT22;27185;52.040;4.490;2022-10-18T16:10:37;19.00;93.10
41447;DHT22;27185;52.040;4.490;2022-10-18T16:13:23;18.80;93.40
41447;DHT22;27185;52.040;4.490;2022-10-18T16:16:21;18.60;93.60
41447;DHT22;27185;52.040;4.490;2022-10-18T16:19:11;18.40;93.70
41447;DHT22;27185;52.040;4.490;2022-10-18T16:21:59;18.20;94.00
41447;DHT22;27185;52.040;4.490;2022-10-18T16:24:44;18.10;94.20
41447;DHT22;27185;52.040;4.490;2022-10-18T16:27:30;17.90;94.40
41447;DHT22;27185;52.040;4.490;2022-10-18T16:30:18;17.70;94.60
41447;DHT22;27185;52.040;4.490;2022-10-18T16:33:04;17.60;94.70
41447;DHT22;27185;52.040;4.490;2022-10-18T16:35:52;17.50;94.90
41447;DHT22;27185;52.040;4.490;2022-10-18T16:38:37;17.30;95.00
41447;DHT22;27185;52.040;4.490;2022-10-18T16:41:23;17.20;95.20
41447;DHT22;27185;52.040;4.490;2022-10-18T16:44:10;17.10;95.30
41447;DHT22;27185;52.040;4.490;2022-10-18T16:46:55;17.00;95.50
41447;DHT22;27185;52.040;4.490;2022-10-18T16:49:41;16.90;95.60
41447;DHT22;27185;52.040;4.490;2022-10-18T16:52:26;16.80;95.80
41447;DHT22;27185;52.040;4.490;2022-10-18T16:55:12;16.70;96.00
41447;DHT22;27185;52.040;4.490;2022-10-18T16:58:07;16.60;96.10
41447;DHT22;27185;52.040;4.490;2022-10-18T17:00:56;16.50;96.30
41447;DHT22;27185;52.040;4.490;2022-10-18T17:03:42;16.40;96.40
41447;DHT22;27185;52.040;4.490;2022-10-18T17:06:30;16.30;96.60
41447;DHT22;27185;52.040;4.490;2022-10-18T17:09:16;16.20;96.70
41447;DHT22;27185;52.040;4.490;2022-10-18T17:12:02;16.10;97.20
41447;DHT22;27185;52.040;4.490;2022-10-18T17:14:47;16.00;97.10
41447;DHT22;27185;52.040;4.490;2022-10-18T17:17:34;15.90;97.30
41447;DHT22;27185;52.040;4.490;2022-10-18T17:20:23;15.90;97.40
41447;DHT22;27185;52.040;4.490;2022-10-18T17:23:10;15.80;97.60
41447;DHT22;27185;52.040;4.490;2022-10-18T17:25:55;15.70;97.70
41447;DHT22;27185;52.040;4.490;2022-10-18T17:28:41;15.60;97.80
41447;DHT22;27185;52.040;4.490;2022-10-18T17:31:27;15.50;97.80
41447;DHT22;27185;52.040;4.490;2022-10-18T17:34:13;15.50;97.90
41447;DHT22;27185;52.040;4.490;2022-10-18T17:37:03;15.30;98.00
41447;DHT22;27185;52.040;4.490;2022-10-18T17:39:49;15.20;98.10
41447;DHT22;27185;52.040;4.490;2022-10-18T17:42:35;15.10;98.20
41447;DHT22;27185;52.040;4.490;2022-10-18T17:45:20;15.00;98.40
41447;DHT22;27185;52.040;4.490;2022-10-18T17:48:06;14.80;98.50
41447;DHT22;27185;52.040;4.490;2022-10-18T17:50:52;14.70;98.70
41447;DHT22;27185;52.040;4.490;2022-10-18T17:53:37;14.60;98.90
41447;DHT22;27185;52.040;4.490;2022-10-18T17:56:23;14.50;99.00
41447;DHT22;27185;52.040;4.490;2022-10-18T17:59:11;14.40;99.10
41447;DHT22;27185;52.040;4.490;2022-10-18T18:01:56;14.30;99.50
41447;DHT22;27185;52.040;4.490;2022-10-18T18:04:42;14.20;99.10
41447;DHT22;27185;52.040;4.490;2022-10-18T18:07:28;14.10;99.30
41447;DHT22;27185;52.040;4.490;2022-10-18T18:10:13;13.90;99.50
41447;DHT22;27185;52.040;4.490;2022-10-18T18:13:00;13.80;99.80
41447;DHT22;27185;52.040;4.490;2022-10-18T18:15:45;13.70;99.90
41447;DHT22;27185;52.040;4.490;2022-10-18T18:18:31;13.60;99.90
41447;DHT22;27185;52.040;4.490;2022-10-18T18:21:17;13.50;99.90
41447;DHT22;27185;52.040;4.490;2022-10-18T18:24:03;13.40;99.90
41447;DHT22;27185;52.040;4.490;2022-10-18T18:26:54;13.40;99.90
41447;DHT22;27185;52.040;4.490;2022-10-18T18:29:39;13.30;99.90
41447;DHT22;27185;52.040;4.490;2022-10-18T18:32:25;13.20;99.90
41447;DHT22;27185;52.040;4.490;2022-10-18T18:35:11;13.10;99.90
41447;DHT22;27185;52.040;4.490;2022-10-18T18:37:56;13.10;99.90
41447;DHT22;27185;52.040;4.490;2022-10-18T18:40:42;13.00;99.90
41447;DHT22;27185;52.040;4.490;2022-10-18T18:43:27;13.00;99.90
41447;DHT22;27185;52.040;4.490;2022-10-18T18:46:13;12.90;99.90
41447;DHT22;27185;52.040;4.490;2022-10-18T18:48:59;12.90;99.90
41447;DHT22;27185;52.040;4.490;2022-10-18T18:51:45;12.80;99.90
41447;DHT22;27185;52.040;4.490;2022-10-18T18:54:30;12.80;99.90
41447;DHT22;27185;52.040;4.490;2022-10-18T18:57:16;12.80;99.90
41447;DHT22;27185;52.040;4.490;2022-10-18T19:00:02;12.80;99.90
41447;DHT22;27185;52.040;4.490;2022-10-18T19:02:48;12.70;99.90
41447;DHT22;27185;52.040;4.490;2022-10-18T19:05:34;12.70;99.90
41447;DHT22;27185;52.040;4.490;2022-10-18T19:08:20;12.60;99.90
41447;DHT22;27185;52.040;4.490;2022-10-18T19:11:07;12.60;99.90
41447;DHT22;27185;52.040;4.490;2022-10-18T19:13:53;12.60;99.90
41447;DHT22;27185;52.040;4.490;2022-10-18T19:16:42;12.60;99.90
41447;DHT22;27185;52.040;4.490;2022-10-18T19:19:29;12.50;99.90
41447;DHT22;27185;52.040;4.490;2022-10-18T19:22:15;12.50;99.90
41447;DHT22;27185;52.040;4.490;2022-10-18T19:25:01;12.40;99.90
41447;DHT22;27185;52.040;4.490;2022-10-18T19:27:46;12.40;99.90
41447;DHT22;27185;52.040;4.490;2022-10-18T19:30:32;12.40;99.90
41447;DHT22;27185;52.040;4.490;2022-10-18T19:33:17;12.30;99.90
41447;DHT22;27185;52.040;4.490;2022-10-18T19:36:06;12.30;99.90
41447;DHT22;27185;52.040;4.490;2022-10-18T19:38:52;12.30;99.90
41447;DHT22;27185;52.040;4.490;2022-10-18T19:41:37;12.20;99.90
41447;DHT22;27185;52.040;4.490;2022-10-18T19:44:25;12.10;99.90